sensor_id;sensor_type;location;lat;lon;timestamp;P1;durP1;ratioP1;P2;durP2;ratioP2
45408;SDS011;31162;51.076;3.784;2022-07-06T00:01:37;8.45;;;6.03;;
45408;SDS011;31162;51.076;3.784;2022-07-06T00:04:03;10.40;;;6.28;;
45408;SDS011;31162;51.076;3.784;2022-07-06T00:06:30;6.07;;;5.55;;
45408;SDS011;31162;51.076;3.784;2022-07-06T00:08:56;7.25;;;5.70;;
45408;SDS011;31162;51.076;3.784;2022-07-06T00:11:22;8.85;;;6.10;;
45408;SDS011;31162;51.076;3.784;2022-07-06T00:13:48;6.50;;;5.88;;
45408;SDS011;31162;51.076;3.784;2022-07-06T00:16:15;6.40;;;5.75;;
45408;SDS011;31162;51.076;3.784;2022-07-06T00:18:41;6.45;;;5.85;;
45408;SDS011;31162;51.076;3.784;2022-07-06T00:21:06;6.10;;;5.50;;
45408;SDS011;31162;51.076;3.784;2022-07-06T00:23:32;8.40;;;5.53;;
45408;SDS011;31162;51.076;3.784;2022-07-06T00:25:58;6.90;;;6.20;;
45408;SDS011;31162;51.076;3.784;2022-07-06T00:28:24;8.55;;;6.60;;
45408;SDS011;31162;51.076;3.784;2022-07-06T00:30:49;9.32;;;6.65;;
45408;SDS011;31162;51.076;3.784;2022-07-06T00:33:15;8.18;;;6.82;;
45408;SDS011;31162;51.076;3.784;2022-07-06T00:35:41;7.10;;;6.20;;
45408;SDS011;31162;51.076;3.784;2022-07-06T00:38:06;6.90;;;6.10;;
45408;SDS011;31162;51.076;3.784;2022-07-06T00:40:32;9.30;;;6.70;;
45408;SDS011;31162;51.076;3.784;2022-07-06T00:42:57;8.52;;;6.53;;
45408;SDS011;31162;51.076;3.784;2022-07-06T00:45:23;8.00;;;6.38;;
45408;SDS011;31162;51.076;3.784;2022-07-06T00:47:49;7.68;;;6.10;;
45408;SDS011;31162;51.076;3.784;2022-07-06T00:50:15;7.07;;;6.40;;
45408;SDS011;31162;51.076;3.784;2022-07-06T00:52:46;6.93;;;5.82;;
45408;SDS011;31162;51.076;3.784;2022-07-06T00:55:15;9.85;;;6.10;;
45408;SDS011;31162;51.076;3.784;2022-07-06T00:57:42;7.78;;;5.88;;
45408;SDS011;31162;51.076;3.784;2022-07-06T01:00:08;6.90;;;6.25;;
45408;SDS011;31162;51.076;3.784;2022-07-06T01:02:36;6.47;;;5.88;;
45408;SDS011;31162;51.076;3.784;2022-07-06T01:05:06;6.82;;;5.63;;
45408;SDS011;31162;51.076;3.784;2022-07-06T01:07:33;9.18;;;5.60;;
45408;SDS011;31162;51.076;3.784;2022-07-06T01:10:01;6.72;;;6.00;;
45408;SDS011;31162;51.076;3.784;2022-07-06T01:12:28;7.75;;;5.90;;
45408;SDS011;31162;51.076;3.784;2022-07-06T01:14:57;7.28;;;5.35;;
45408;SDS011;31162;51.076;3.784;2022-07-06T01:17:22;7.90;;;5.85;;
45408;SDS011;31162;51.076;3.784;2022-07-06T01:19:49;7.07;;;5.70;;
45408;SDS011;31162;51.076;3.784;2022-07-06T01:22:15;6.13;;;5.63;;
45408;SDS011;31162;51.076;3.784;2022-07-06T01:24:40;9.35;;;5.60;;
45408;SDS011;31162;51.076;3.784;2022-07-06T01:27:06;6.20;;;5.45;;
45408;SDS011;31162;51.076;3.784;2022-07-06T01:29:33;8.38;;;6.30;;
45408;SDS011;31162;51.076;3.784;2022-07-06T01:31:59;6.80;;;6.03;;
45408;SDS011;31162;51.076;3.784;2022-07-06T01:34:25;7.88;;;6.10;;
45408;SDS011;31162;51.076;3.784;2022-07-06T01:36:51;7.80;;;6.60;;
45408;SDS011;31162;51.076;3.784;2022-07-06T01:39:17;7.35;;;6.53;;
45408;SDS011;31162;51.076;3.784;2022-07-06T01:41:42;7.18;;;6.47;;
45408;SDS011;31162;51.076;3.784;2022-07-06T01:44:08;7.00;;;6.28;;
45408;SDS011;31162;51.076;3.784;2022-07-06T01:46:37;7.57;;;6.28;;
45408;SDS011;31162;51.076;3.784;2022-07-06T01:49:03;7.82;;;6.20;;
45408;SDS011;31162;51.076;3.784;2022-07-06T01:51:29;7.53;;;6.15;;
45408;SDS011;31162;51.076;3.784;2022-07-06T01:53:55;6.82;;;6.13;;
45408;SDS011;31162;51.076;3.784;2022-07-06T01:56:21;7.55;;;6.50;;
45408;SDS011;31162;51.076;3.784;2022-07-06T01:58:47;6.70;;;6.00;;
45408;SDS011;31162;51.076;3.784;2022-07-06T02:01:14;8.38;;;6.10;;
45408;SDS011;31162;51.076;3.784;2022-07-06T02:03:43;9.23;;;6.30;;
45408;SDS011;31162;51.076;3.784;2022-07-06T02:06:10;8.50;;;6.50;;
45408;SDS011;31162;51.076;3.784;2022-07-06T02:08:40;7.25;;;6.20;;
45408;SDS011;31162;51.076;3.784;2022-07-06T02:11:06;6.97;;;6.22;;
45408;SDS011;31162;51.076;3.784;2022-07-06T02:13:33;6.50;;;5.70;;
45408;SDS011;31162;51.076;3.784;2022-07-06T02:15:59;7.95;;;7.05;;
45408;SDS011;31162;51.076;3.784;2022-07-06T02:18:25;8.30;;;6.68;;
45408;SDS011;31162;51.076;3.784;2022-07-06T02:20:51;11.07;;;6.90;;
45408;SDS011;31162;51.076;3.784;2022-07-06T02:23:16;7.35;;;6.32;;
45408;SDS011;31162;51.076;3.784;2022-07-06T02:25:42;8.65;;;6.50;;
45408;SDS011;31162;51.076;3.784;2022-07-06T02:28:10;10.50;;;6.85;;
45408;SDS011;31162;51.076;3.784;2022-07-06T02:30:35;7.57;;;6.78;;
45408;SDS011;31162;51.076;3.784;2022-07-06T02:33:01;6.95;;;6.25;;
45408;SDS011;31162;51.076;3.784;2022-07-06T02:35:27;9.15;;;6.07;;
45408;SDS011;31162;51.076;3.784;2022-07-06T02:37:53;7.05;;;6.32;;
45408;SDS011;31162;51.076;3.784;2022-07-06T02:40:18;8.65;;;6.80;;
45408;SDS011;31162;51.076;3.784;2022-07-06T02:42:44;8.15;;;6.55;;
45408;SDS011;31162;51.076;3.784;2022-07-06T02:45:10;7.90;;;6.32;;
45408;SDS011;31162;51.076;3.784;2022-07-06T02:47:35;7.63;;;6.57;;
45408;SDS011;31162;51.076;3.784;2022-07-06T02:50:02;7.32;;;6.60;;
45408;SDS011;31162;51.076;3.784;2022-07-06T02:52:29;8.23;;;6.95;;
45408;SDS011;31162;51.076;3.784;2022-07-06T02:54:55;7.35;;;6.57;;
45408;SDS011;31162;51.076;3.784;2022-07-06T02:57:20;8.07;;;6.93;;
45408;SDS011;31162;51.076;3.784;2022-07-06T02:59:46;7.85;;;6.90;;
45408;SDS011;31162;51.076;3.784;2022-07-06T03:02:14;9.75;;;7.82;;
45408;SDS011;31162;51.076;3.784;2022-07-06T03:04:41;8.40;;;7.40;;
45408;SDS011;31162;51.076;3.784;2022-07-06T03:07:06;9.23;;;7.90;;
45408;SDS011;31162;51.076;3.784;2022-07-06T03:09:32;9.00;;;7.57;;
45408;SDS011;31162;51.076;3.784;2022-07-06T03:12:01;8.70;;;7.80;;
45408;SDS011;31162;51.076;3.784;2022-07-06T03:14:27;9.63;;;8.25;;
45408;SDS011;31162;51.076;3.784;2022-07-06T03:16:52;8.85;;;8.05;;
45408;SDS011;31162;51.076;3.784;2022-07-06T03:19:18;9.00;;;7.32;;
45408;SDS011;31162;51.076;3.784;2022-07-06T03:21:44;8.82;;;6.80;;
45408;SDS011;31162;51.076;3.784;2022-07-06T03:24:10;12.55;;;8.38;;
45408;SDS011;31162;51.076;3.784;2022-07-06T03:26:36;8.93;;;7.70;;
45408;SDS011;31162;51.076;3.784;2022-07-06T03:29:02;7.70;;;7.00;;
45408;SDS011;31162;51.076;3.784;2022-07-06T03:31:27;8.20;;;7.40;;
45408;SDS011;31162;51.076;3.784;2022-07-06T03:33:53;9.32;;;7.13;;
45408;SDS011;31162;51.076;3.784;2022-07-06T03:36:19;9.10;;;7.88;;
45408;SDS011;31162;51.076;3.784;2022-07-06T03:38:44;8.82;;;7.82;;
45408;SDS011;31162;51.076;3.784;2022-07-06T03:41:10;10.02;;;8.02;;
45408;SDS011;31162;51.076;3.784;2022-07-06T03:43:36;8.68;;;7.80;;
45408;SDS011;31162;51.076;3.784;2022-07-06T03:46:02;9.13;;;8.18;;
45408;SDS011;31162;51.076;3.784;2022-07-06T03:48:28;8.65;;;7.88;;
45408;SDS011;31162;51.076;3.784;2022-07-06T03:50:56;11.07;;;7.78;;
45408;SDS011;31162;51.076;3.784;2022-07-06T03:53:21;9.07;;;7.63;;
45408;SDS011;31162;51.076;3.784;2022-07-06T03:55:47;8.70;;;7.28;;
45408;SDS011;31162;51.076;3.784;2022-07-06T03:58:33;9.85;;;8.48;;
45408;SDS011;31162;51.076;3.784;2022-07-06T04:00:58;9.27;;;7.55;;
45408;SDS011;31162;51.076;3.784;2022-07-06T04:03:24;10.65;;;7.90;;
45408;SDS011;31162;51.076;3.784;2022-07-06T04:05:50;10.68;;;7.60;;
45408;SDS011;31162;51.076;3.784;2022-07-06T04:08:15;10.50;;;7.80;;
45408;SDS011;31162;51.076;3.784;2022-07-06T04:10:41;8.55;;;7.75;;
45408;SDS011;31162;51.076;3.784;2022-07-06T04:13:07;8.40;;;7.60;;
45408;SDS011;31162;51.076;3.784;2022-07-06T04:15:32;7.78;;;7.10;;
45408;SDS011;31162;51.076;3.784;2022-07-06T04:17:58;8.20;;;7.38;;
45408;SDS011;31162;51.076;3.784;2022-07-06T04:20:24;9.15;;;6.88;;
45408;SDS011;31162;51.076;3.784;2022-07-06T04:22:50;7.97;;;6.93;;
45408;SDS011;31162;51.076;3.784;2022-07-06T04:25:17;8.50;;;7.65;;
45408;SDS011;31162;51.076;3.784;2022-07-06T04:27:43;8.25;;;7.03;;
45408;SDS011;31162;51.076;3.784;2022-07-06T04:30:09;7.88;;;6.63;;
45408;SDS011;31162;51.076;3.784;2022-07-06T04:32:35;8.85;;;6.72;;
45408;SDS011;31162;51.076;3.784;2022-07-06T04:35:01;7.45;;;6.75;;
45408;SDS011;31162;51.076;3.784;2022-07-06T04:37:28;8.27;;;6.70;;
45408;SDS011;31162;51.076;3.784;2022-07-06T04:39:54;8.82;;;7.93;;
45408;SDS011;31162;51.076;3.784;2022-07-06T04:42:20;7.65;;;6.85;;
45408;SDS011;31162;51.076;3.784;2022-07-06T04:44:45;7.43;;;6.78;;
45408;SDS011;31162;51.076;3.784;2022-07-06T04:47:11;8.65;;;7.75;;
45408;SDS011;31162;51.076;3.784;2022-07-06T04:49:37;8.32;;;7.38;;
45408;SDS011;31162;51.076;3.784;2022-07-06T04:52:03;8.57;;;7.65;;
45408;SDS011;31162;51.076;3.784;2022-07-06T04:54:30;8.30;;;7.28;;
45408;SDS011;31162;51.076;3.784;2022-07-06T04:56:58;8.48;;;7.05;;
45408;SDS011;31162;51.076;3.784;2022-07-06T04:59:23;8.73;;;6.88;;
45408;SDS011;31162;51.076;3.784;2022-07-06T05:01:49;7.80;;;6.88;;
45408;SDS011;31162;51.076;3.784;2022-07-06T05:04:15;8.40;;;7.07;;
45408;SDS011;31162;51.076;3.784;2022-07-06T05:06:43;7.38;;;6.68;;
45408;SDS011;31162;51.076;3.784;2022-07-06T05:09:09;8.65;;;7.20;;
45408;SDS011;31162;51.076;3.784;2022-07-06T05:11:34;8.85;;;6.40;;
45408;SDS011;31162;51.076;3.784;2022-07-06T05:14:02;9.68;;;6.40;;
45408;SDS011;31162;51.076;3.784;2022-07-06T05:16:28;9.73;;;6.40;;
45408;SDS011;31162;51.076;3.784;2022-07-06T05:18:53;8.45;;;6.30;;
45408;SDS011;31162;51.076;3.784;2022-07-06T05:21:19;8.95;;;6.63;;
45408;SDS011;31162;51.076;3.784;2022-07-06T05:23:45;8.20;;;6.15;;
45408;SDS011;31162;51.076;3.784;2022-07-06T05:26:10;11.45;;;6.88;;
45408;SDS011;31162;51.076;3.784;2022-07-06T05:28:36;6.90;;;5.97;;
45408;SDS011;31162;51.076;3.784;2022-07-06T05:31:02;10.00;;;6.63;;
45408;SDS011;31162;51.076;3.784;2022-07-06T05:33:27;9.75;;;6.18;;
45408;SDS011;31162;51.076;3.784;2022-07-06T05:35:53;10.55;;;6.70;;
45408;SDS011;31162;51.076;3.784;2022-07-06T05:38:19;13.13;;;7.80;;
45408;SDS011;31162;51.076;3.784;2022-07-06T05:40:45;11.35;;;7.22;;
45408;SDS011;31162;51.076;3.784;2022-07-06T05:43:10;10.45;;;6.88;;
45408;SDS011;31162;51.076;3.784;2022-07-06T05:45:36;10.90;;;7.22;;
45408;SDS011;31162;51.076;3.784;2022-07-06T05:48:02;8.02;;;7.22;;
45408;SDS011;31162;51.076;3.784;2022-07-06T05:50:46;7.45;;;6.85;;
45408;SDS011;31162;51.076;3.784;2022-07-06T05:53:12;7.97;;;6.90;;
45408;SDS011;31162;51.076;3.784;2022-07-06T05:55:40;10.10;;;8.10;;
45408;SDS011;31162;51.076;3.784;2022-07-06T05:58:06;11.20;;;8.35;;
45408;SDS011;31162;51.076;3.784;2022-07-06T06:00:32;10.60;;;8.10;;
45408;SDS011;31162;51.076;3.784;2022-07-06T06:02:58;9.00;;;8.07;;
45408;SDS011;31162;51.076;3.784;2022-07-06T06:05:24;9.13;;;7.32;;
45408;SDS011;31162;51.076;3.784;2022-07-06T06:07:50;8.18;;;7.38;;
45408;SDS011;31162;51.076;3.784;2022-07-06T06:10:17;8.63;;;7.72;;
45408;SDS011;31162;51.076;3.784;2022-07-06T06:12:44;11.15;;;8.07;;
45408;SDS011;31162;51.076;3.784;2022-07-06T06:15:10;9.85;;;7.55;;
45408;SDS011;31162;51.076;3.784;2022-07-06T06:17:37;11.43;;;7.93;;
45408;SDS011;31162;51.076;3.784;2022-07-06T06:20:04;11.30;;;7.63;;
45408;SDS011;31162;51.076;3.784;2022-07-06T06:22:32;9.00;;;7.30;;
45408;SDS011;31162;51.076;3.784;2022-07-06T06:25:14;10.85;;;7.53;;
45408;SDS011;31162;51.076;3.784;2022-07-06T06:27:41;8.18;;;7.38;;
45408;SDS011;31162;51.076;3.784;2022-07-06T06:30:07;8.45;;;7.00;;
45408;SDS011;31162;51.076;3.784;2022-07-06T06:32:33;8.50;;;7.10;;
45408;SDS011;31162;51.076;3.784;2022-07-06T06:34:59;8.80;;;6.75;;
45408;SDS011;31162;51.076;3.784;2022-07-06T06:37:25;7.63;;;6.43;;
45408;SDS011;31162;51.076;3.784;2022-07-06T06:39:50;8.27;;;6.40;;
45408;SDS011;31162;51.076;3.784;2022-07-06T06:42:16;9.55;;;6.50;;
45408;SDS011;31162;51.076;3.784;2022-07-06T06:44:42;9.23;;;6.07;;
45408;SDS011;31162;51.076;3.784;2022-07-06T06:47:07;8.00;;;5.53;;
45408;SDS011;31162;51.076;3.784;2022-07-06T06:49:33;11.68;;;6.50;;
45408;SDS011;31162;51.076;3.784;2022-07-06T06:51:58;6.20;;;5.60;;
45408;SDS011;31162;51.076;3.784;2022-07-06T06:54:24;9.38;;;5.25;;
45408;SDS011;31162;51.076;3.784;2022-07-06T06:56:50;6.60;;;5.15;;
45408;SDS011;31162;51.076;3.784;2022-07-06T06:59:18;4.95;;;4.25;;
45408;SDS011;31162;51.076;3.784;2022-07-06T07:01:44;7.13;;;4.60;;
45408;SDS011;31162;51.076;3.784;2022-07-06T07:04:10;5.70;;;3.75;;
45408;SDS011;31162;51.076;3.784;2022-07-06T07:06:35;5.95;;;3.63;;
45408;SDS011;31162;51.076;3.784;2022-07-06T07:09:01;6.60;;;3.72;;
45408;SDS011;31162;51.076;3.784;2022-07-06T07:11:27;4.78;;;2.67;;
45408;SDS011;31162;51.076;3.784;2022-07-06T07:13:52;5.10;;;3.17;;
45408;SDS011;31162;51.076;3.784;2022-07-06T07:16:18;6.32;;;3.33;;
45408;SDS011;31162;51.076;3.784;2022-07-06T07:18:44;6.72;;;2.58;;
45408;SDS011;31162;51.076;3.784;2022-07-06T07:21:09;4.25;;;3.13;;
45408;SDS011;31162;51.076;3.784;2022-07-06T07:23:35;4.47;;;3.35;;
45408;SDS011;31162;51.076;3.784;2022-07-06T07:26:01;5.95;;;2.65;;
45408;SDS011;31162;51.076;3.784;2022-07-06T07:28:26;3.97;;;2.90;;
45408;SDS011;31162;51.076;3.784;2022-07-06T07:30:52;4.53;;;2.63;;
45408;SDS011;31162;51.076;3.784;2022-07-06T07:33:17;4.72;;;2.33;;
45408;SDS011;31162;51.076;3.784;2022-07-06T07:35:43;5.45;;;2.38;;
45408;SDS011;31162;51.076;3.784;2022-07-06T07:38:09;5.22;;;2.50;;
45408;SDS011;31162;51.076;3.784;2022-07-06T07:40:34;4.63;;;2.63;;
45408;SDS011;31162;51.076;3.784;2022-07-06T07:43:00;4.53;;;2.47;;
45408;SDS011;31162;51.076;3.784;2022-07-06T07:45:26;2.83;;;1.50;;
45408;SDS011;31162;51.076;3.784;2022-07-06T07:47:54;3.70;;;1.65;;
45408;SDS011;31162;51.076;3.784;2022-07-06T07:50:20;6.63;;;2.50;;
45408;SDS011;31162;51.076;3.784;2022-07-06T07:52:45;4.55;;;2.67;;
45408;SDS011;31162;51.076;3.784;2022-07-06T07:55:11;3.42;;;2.38;;
45408;SDS011;31162;51.076;3.784;2022-07-06T07:57:37;4.93;;;2.60;;
45408;SDS011;31162;51.076;3.784;2022-07-06T08:00:04;6.55;;;2.53;;
45408;SDS011;31162;51.076;3.784;2022-07-06T08:02:30;3.30;;;2.38;;
45408;SDS011;31162;51.076;3.784;2022-07-06T08:04:56;3.97;;;2.22;;
45408;SDS011;31162;51.076;3.784;2022-07-06T08:07:21;5.07;;;2.67;;
45408;SDS011;31162;51.076;3.784;2022-07-06T08:09:47;6.30;;;3.08;;
45408;SDS011;31162;51.076;3.784;2022-07-06T08:12:13;5.78;;;2.50;;
45408;SDS011;31162;51.076;3.784;2022-07-06T08:14:38;5.43;;;2.85;;
45408;SDS011;31162;51.076;3.784;2022-07-06T08:17:04;6.25;;;2.67;;
45408;SDS011;31162;51.076;3.784;2022-07-06T08:19:30;5.03;;;2.95;;
45408;SDS011;31162;51.076;3.784;2022-07-06T08:21:56;4.88;;;2.13;;
45408;SDS011;31162;51.076;3.784;2022-07-06T08:24:22;4.55;;;2.22;;
45408;SDS011;31162;51.076;3.784;2022-07-06T08:26:48;5.70;;;2.47;;
45408;SDS011;31162;51.076;3.784;2022-07-06T08:29:14;5.68;;;2.67;;
45408;SDS011;31162;51.076;3.784;2022-07-06T08:31:40;3.38;;;2.45;;
45408;SDS011;31162;51.076;3.784;2022-07-06T08:34:05;4.80;;;2.80;;
45408;SDS011;31162;51.076;3.784;2022-07-06T08:36:31;5.82;;;3.15;;
45408;SDS011;31162;51.076;3.784;2022-07-06T08:38:57;6.07;;;2.70;;
45408;SDS011;31162;51.076;3.784;2022-07-06T08:41:24;6.15;;;3.17;;
45408;SDS011;31162;51.076;3.784;2022-07-06T08:43:51;6.78;;;3.10;;
45408;SDS011;31162;51.076;3.784;2022-07-06T08:46:17;3.95;;;2.63;;
45408;SDS011;31162;51.076;3.784;2022-07-06T08:48:44;5.18;;;2.88;;
45408;SDS011;31162;51.076;3.784;2022-07-06T08:51:11;5.75;;;2.80;;
45408;SDS011;31162;51.076;3.784;2022-07-06T08:53:38;6.70;;;2.97;;
45408;SDS011;31162;51.076;3.784;2022-07-06T08:56:06;4.68;;;3.00;;
45408;SDS011;31162;51.076;3.784;2022-07-06T08:58:32;4.65;;;3.00;;
45408;SDS011;31162;51.076;3.784;2022-07-06T09:01:00;4.45;;;2.90;;
45408;SDS011;31162;51.076;3.784;2022-07-06T09:03:27;4.57;;;2.83;;
45408;SDS011;31162;51.076;3.784;2022-07-06T09:05:53;5.00;;;2.60;;
45408;SDS011;31162;51.076;3.784;2022-07-06T09:08:29;5.72;;;2.83;;
45408;SDS011;31162;51.076;3.784;2022-07-06T09:10:57;4.95;;;2.70;;
45408;SDS011;31162;51.076;3.784;2022-07-06T09:13:23;5.30;;;2.58;;
45408;SDS011;31162;51.076;3.784;2022-07-06T09:15:48;9.30;;;3.30;;
45408;SDS011;31162;51.076;3.784;2022-07-06T09:18:14;8.20;;;2.65;;
45408;SDS011;31162;51.076;3.784;2022-07-06T09:20:40;5.88;;;2.67;;
45408;SDS011;31162;51.076;3.784;2022-07-06T09:23:06;4.43;;;2.58;;
45408;SDS011;31162;51.076;3.784;2022-07-06T09:25:32;7.95;;;2.70;;
45408;SDS011;31162;51.076;3.784;2022-07-06T09:27:59;8.25;;;3.17;;
45408;SDS011;31162;51.076;3.784;2022-07-06T09:30:27;6.18;;;2.50;;
45408;SDS011;31162;51.076;3.784;2022-07-06T09:32:54;5.75;;;2.72;;
45408;SDS011;31162;51.076;3.784;2022-07-06T09:35:22;3.63;;;2.42;;
45408;SDS011;31162;51.076;3.784;2022-07-06T09:38:04;4.53;;;2.50;;
45408;SDS011;31162;51.076;3.784;2022-07-06T09:40:33;5.07;;;2.53;;
45408;SDS011;31162;51.076;3.784;2022-07-06T09:45:35;5.78;;;2.75;;
45408;SDS011;31162;51.076;3.784;2022-07-06T09:48:06;5.75;;;3.03;;
45408;SDS011;31162;51.076;3.784;2022-07-06T09:50:43;4.65;;;2.92;;
45408;SDS011;31162;51.076;3.784;2022-07-06T09:53:28;5.20;;;2.88;;
45408;SDS011;31162;51.076;3.784;2022-07-06T09:55:54;8.00;;;3.45;;
45408;SDS011;31162;51.076;3.784;2022-07-06T09:58:25;4.32;;;2.70;;
45408;SDS011;31162;51.076;3.784;2022-07-06T10:00:51;5.80;;;2.88;;
45408;SDS011;31162;51.076;3.784;2022-07-06T10:03:18;3.58;;;2.22;;
45408;SDS011;31162;51.076;3.784;2022-07-06T10:05:45;6.00;;;2.67;;
45408;SDS011;31162;51.076;3.784;2022-07-06T10:08:15;10.02;;;2.97;;
45408;SDS011;31162;51.076;3.784;2022-07-06T10:10:42;5.13;;;2.97;;
45408;SDS011;31162;51.076;3.784;2022-07-06T10:13:08;5.72;;;3.30;;
45408;SDS011;31162;51.076;3.784;2022-07-06T10:15:35;6.03;;;2.53;;
45408;SDS011;31162;51.076;3.784;2022-07-06T10:18:03;4.63;;;2.60;;
45408;SDS011;31162;51.076;3.784;2022-07-06T10:20:32;4.38;;;2.83;;
45408;SDS011;31162;51.076;3.784;2022-07-06T10:23:01;5.75;;;2.63;;
45408;SDS011;31162;51.076;3.784;2022-07-06T10:25:28;3.70;;;2.33;;
45408;SDS011;31162;51.076;3.784;2022-07-06T10:27:55;6.10;;;2.67;;
45408;SDS011;31162;51.076;3.784;2022-07-06T10:30:21;4.78;;;2.30;;
45408;SDS011;31162;51.076;3.784;2022-07-06T10:32:48;6.13;;;2.70;;
45408;SDS011;31162;51.076;3.784;2022-07-06T10:35:15;5.63;;;2.10;;
45408;SDS011;31162;51.076;3.784;2022-07-06T10:37:46;5.93;;;2.00;;
45408;SDS011;31162;51.076;3.784;2022-07-06T10:40:32;5.63;;;2.40;;
45408;SDS011;31162;51.076;3.784;2022-07-06T10:43:20;6.15;;;2.53;;
45408;SDS011;31162;51.076;3.784;2022-07-06T10:50:38;4.38;;;1.98;;
45408;SDS011;31162;51.076;3.784;2022-07-06T10:53:14;3.15;;;2.30;;
45408;SDS011;31162;51.076;3.784;2022-07-06T10:55:51;4.25;;;2.70;;
45408;SDS011;31162;51.076;3.784;2022-07-06T11:01:19;6.30;;;3.22;;
45408;SDS011;31162;51.076;3.784;2022-07-06T11:03:49;5.03;;;2.30;;
45408;SDS011;31162;51.076;3.784;2022-07-06T11:09:01;5.72;;;1.88;;
45408;SDS011;31162;51.076;3.784;2022-07-06T11:14:13;3.42;;;1.17;;
45408;SDS011;31162;51.076;3.784;2022-07-06T11:19:12;6.30;;;2.13;;
45408;SDS011;31162;51.076;3.784;2022-07-06T11:21:39;5.93;;;1.80;;
45408;SDS011;31162;51.076;3.784;2022-07-06T11:24:09;3.75;;;1.58;;
45408;SDS011;31162;51.076;3.784;2022-07-06T11:26:37;6.00;;;1.95;;
45408;SDS011;31162;51.076;3.784;2022-07-06T11:29:04;4.45;;;1.50;;
45408;SDS011;31162;51.076;3.784;2022-07-06T11:31:35;5.50;;;1.80;;
45408;SDS011;31162;51.076;3.784;2022-07-06T11:34:03;3.30;;;1.60;;
45408;SDS011;31162;51.076;3.784;2022-07-06T11:36:29;3.63;;;1.42;;
45408;SDS011;31162;51.076;3.784;2022-07-06T11:38:55;5.78;;;1.58;;
45408;SDS011;31162;51.076;3.784;2022-07-06T11:41:20;2.90;;;1.40;;
45408;SDS011;31162;51.076;3.784;2022-07-06T11:43:46;3.22;;;1.20;;
45408;SDS011;31162;51.076;3.784;2022-07-06T11:46:19;3.90;;;1.88;;
45408;SDS011;31162;51.076;3.784;2022-07-06T11:49:07;2.60;;;1.20;;
45408;SDS011;31162;51.076;3.784;2022-07-06T11:51:34;3.60;;;1.40;;
45408;SDS011;31162;51.076;3.784;2022-07-06T11:54:06;3.80;;;1.30;;
45408;SDS011;31162;51.076;3.784;2022-07-06T11:56:36;3.55;;;1.40;;
45408;SDS011;31162;51.076;3.784;2022-07-06T11:59:02;2.90;;;1.40;;
45408;SDS011;31162;51.076;3.784;2022-07-06T12:01:29;3.78;;;1.45;;
45408;SDS011;31162;51.076;3.784;2022-07-06T12:03:58;5.03;;;2.00;;
45408;SDS011;31162;51.076;3.784;2022-07-06T12:06:26;4.68;;;1.65;;
45408;SDS011;31162;51.076;3.784;2022-07-06T12:08:57;3.47;;;1.55;;
45408;SDS011;31162;51.076;3.784;2022-07-06T12:13:51;4.60;;;1.38;;
45408;SDS011;31162;51.076;3.784;2022-07-06T12:16:18;3.75;;;1.30;;
45408;SDS011;31162;51.076;3.784;2022-07-06T12:18:45;4.82;;;1.60;;
45408;SDS011;31162;51.076;3.784;2022-07-06T12:21:17;4.15;;;1.90;;
45408;SDS011;31162;51.076;3.784;2022-07-06T12:23:46;4.55;;;1.75;;
45408;SDS011;31162;51.076;3.784;2022-07-06T12:26:14;4.53;;;1.50;;
45408;SDS011;31162;51.076;3.784;2022-07-06T12:28:41;3.20;;;1.35;;
45408;SDS011;31162;51.076;3.784;2022-07-06T12:31:08;3.72;;;1.65;;
45408;SDS011;31162;51.076;3.784;2022-07-06T12:33:34;4.85;;;1.63;;
45408;SDS011;31162;51.076;3.784;2022-07-06T12:36:13;5.13;;;1.90;;
45408;SDS011;31162;51.076;3.784;2022-07-06T12:38:46;5.35;;;2.00;;
45408;SDS011;31162;51.076;3.784;2022-07-06T12:41:26;4.22;;;2.00;;
45408;SDS011;31162;51.076;3.784;2022-07-06T12:44:04;3.67;;;2.00;;
45408;SDS011;31162;51.076;3.784;2022-07-06T12:46:38;5.57;;;2.13;;
45408;SDS011;31162;51.076;3.784;2022-07-06T12:49:12;4.35;;;2.47;;
45408;SDS011;31162;51.076;3.784;2022-07-06T12:51:55;2.38;;;1.80;;
45408;SDS011;31162;51.076;3.784;2022-07-06T12:54:27;5.78;;;1.77;;
45408;SDS011;31162;51.076;3.784;2022-07-06T12:56:59;5.20;;;2.65;;
45408;SDS011;31162;51.076;3.784;2022-07-06T12:59:25;4.38;;;2.15;;
45408;SDS011;31162;51.076;3.784;2022-07-06T13:01:52;6.63;;;2.88;;
45408;SDS011;31162;51.076;3.784;2022-07-06T13:04:22;4.00;;;2.10;;
45408;SDS011;31162;51.076;3.784;2022-07-06T13:06:53;4.43;;;2.53;;
45408;SDS011;31162;51.076;3.784;2022-07-06T13:09:19;4.35;;;2.40;;
45408;SDS011;31162;51.076;3.784;2022-07-06T13:11:46;6.25;;;2.50;;
45408;SDS011;31162;51.076;3.784;2022-07-06T13:14:16;8.57;;;3.03;;
45408;SDS011;31162;51.076;3.784;2022-07-06T13:16:43;4.82;;;2.90;;
45408;SDS011;31162;51.076;3.784;2022-07-06T13:19:10;4.63;;;3.30;;
45408;SDS011;31162;51.076;3.784;2022-07-06T13:21:35;7.10;;;4.07;;
45408;SDS011;31162;51.076;3.784;2022-07-06T13:24:02;5.53;;;3.85;;
45408;SDS011;31162;51.076;3.784;2022-07-06T13:26:28;6.05;;;3.63;;
45408;SDS011;31162;51.076;3.784;2022-07-06T13:28:57;6.38;;;3.67;;
45408;SDS011;31162;51.076;3.784;2022-07-06T13:31:24;4.93;;;3.35;;
45408;SDS011;31162;51.076;3.784;2022-07-06T13:33:50;6.10;;;3.75;;
45408;SDS011;31162;51.076;3.784;2022-07-06T13:36:15;8.63;;;4.20;;
45408;SDS011;31162;51.076;3.784;2022-07-06T13:38:41;4.88;;;3.55;;
45408;SDS011;31162;51.076;3.784;2022-07-06T13:41:07;8.30;;;3.65;;
45408;SDS011;31162;51.076;3.784;2022-07-06T13:43:33;6.10;;;2.97;;
45408;SDS011;31162;51.076;3.784;2022-07-06T13:46:02;5.63;;;3.53;;
45408;SDS011;31162;51.076;3.784;2022-07-06T13:48:29;7.15;;;3.75;;
45408;SDS011;31162;51.076;3.784;2022-07-06T13:50:55;7.35;;;4.13;;
45408;SDS011;31162;51.076;3.784;2022-07-06T13:53:21;6.10;;;3.78;;
45408;SDS011;31162;51.076;3.784;2022-07-06T13:55:46;6.55;;;3.72;;
45408;SDS011;31162;51.076;3.784;2022-07-06T13:58:12;8.77;;;4.50;;
45408;SDS011;31162;51.076;3.784;2022-07-06T14:00:38;6.72;;;4.65;;
45408;SDS011;31162;51.076;3.784;2022-07-06T14:03:04;8.32;;;3.85;;
45408;SDS011;31162;51.076;3.784;2022-07-06T14:05:30;4.30;;;3.55;;
45408;SDS011;31162;51.076;3.784;2022-07-06T14:07:56;5.30;;;4.00;;
45408;SDS011;31162;51.076;3.784;2022-07-06T14:10:22;7.25;;;4.15;;
45408;SDS011;31162;51.076;3.784;2022-07-06T14:12:48;7.07;;;4.22;;
45408;SDS011;31162;51.076;3.784;2022-07-06T14:15:13;8.13;;;3.83;;
45408;SDS011;31162;51.076;3.784;2022-07-06T14:17:39;5.75;;;3.97;;
45408;SDS011;31162;51.076;3.784;2022-07-06T14:20:05;4.78;;;4.28;;
45408;SDS011;31162;51.076;3.784;2022-07-06T14:22:31;7.82;;;4.50;;
45408;SDS011;31162;51.076;3.784;2022-07-06T14:24:58;9.35;;;4.88;;
45408;SDS011;31162;51.076;3.784;2022-07-06T14:27:24;9.38;;;3.95;;
45408;SDS011;31162;51.076;3.784;2022-07-06T14:29:49;5.70;;;3.92;;
45408;SDS011;31162;51.076;3.784;2022-07-06T14:32:15;7.07;;;4.07;;
45408;SDS011;31162;51.076;3.784;2022-07-06T14:34:41;6.10;;;4.18;;
45408;SDS011;31162;51.076;3.784;2022-07-06T14:37:07;7.45;;;3.88;;
45408;SDS011;31162;51.076;3.784;2022-07-06T14:39:33;7.28;;;3.58;;
45408;SDS011;31162;51.076;3.784;2022-07-06T14:41:58;6.45;;;3.40;;
45408;SDS011;31162;51.076;3.784;2022-07-06T14:44:24;7.30;;;4.30;;
45408;SDS011;31162;51.076;3.784;2022-07-06T14:46:51;9.07;;;3.92;;
45408;SDS011;31162;51.076;3.784;2022-07-06T14:49:17;6.03;;;3.25;;
45408;SDS011;31162;51.076;3.784;2022-07-06T14:51:43;4.70;;;2.80;;
45408;SDS011;31162;51.076;3.784;2022-07-06T14:54:11;6.68;;;3.35;;
45408;SDS011;31162;51.076;3.784;2022-07-06T14:56:36;6.70;;;2.80;;
45408;SDS011;31162;51.076;3.784;2022-07-06T14:59:02;5.70;;;2.85;;
45408;SDS011;31162;51.076;3.784;2022-07-06T15:01:28;6.05;;;3.10;;
45408;SDS011;31162;51.076;3.784;2022-07-06T15:03:53;6.72;;;3.00;;
45408;SDS011;31162;51.076;3.784;2022-07-06T15:06:19;5.82;;;2.75;;
45408;SDS011;31162;51.076;3.784;2022-07-06T15:08:44;5.90;;;2.65;;